sensor_id;sensor_type;location;lat;lon;timestamp;pressure;altitude;pressure_sealevel;temperature;humidity
70488;BME280;57976;48.174;16.370;2023-02-15T00:00:11;100984.55;;;4.95;71.98
70488;BME280;57976;48.174;16.370;2023-02-15T00:02:14;100986.48;;;4.95;71.95
70488;BME280;57976;48.174;16.370;2023-02-15T00:04:22;100983.67;;;4.91;71.78
70488;BME280;57976;48.174;16.370;2023-02-15T00:06:26;100978.05;;;4.88;71.92
70488;BME280;57976;48.174;16.370;2023-02-15T00:08:29;100978.17;;;4.87;72.09
70488;BME280;57976;48.174;16.370;2023-02-15T00:10:32;100974.14;;;4.89;71.99
70488;BME280;57976;48.174;16.370;2023-02-15T00:12:34;100976.88;;;4.87;71.94
70488;BME280;57976;48.174;16.370;2023-02-15T00:14:37;100977.23;;;4.85;71.88
70488;BME280;57976;48.174;16.370;2023-02-15T00:16:42;100973.42;;;4.85;72.03
70488;BME280;57976;48.174;16.370;2023-02-15T00:18:45;100968.48;;;4.89;72.07
70488;BME280;57976;48.174;16.370;2023-02-15T00:20:47;100973.56;;;4.96;72.28
70488;BME280;57976;48.174;16.370;2023-02-15T00:22:51;100968.23;;;4.98;71.99
70488;BME280;57976;48.174;16.370;2023-02-15T00:24:54;100967.77;;;5.00;71.87
70488;BME280;57976;48.174;16.370;2023-02-15T00:26:57;100966.55;;;5.00;71.44
70488;BME280;57976;48.174;16.370;2023-02-15T00:29:00;100968.30;;;5.00;71.80
70488;BME280;57976;48.174;16.370;2023-02-15T00:31:05;100968.21;;;4.99;71.60
70488;BME280;57976;48.174;16.370;2023-02-15T00:33:11;100969.96;;;4.99;71.50
70488;BME280;57976;48.174;16.370;2023-02-15T00:35:16;100967.23;;;4.98;71.63
70488;BME280;57976;48.174;16.370;2023-02-15T00:37:19;100967.55;;;4.98;71.64
70488;BME280;57976;48.174;16.370;2023-02-15T00:39:23;100972.27;;;4.98;71.91
70488;BME280;57976;48.174;16.370;2023-02-15T00:41:25;100970.75;;;5.00;71.89
70488;BME280;57976;48.174;16.370;2023-02-15T00:43:29;100961.77;;;5.00;71.48
70488;BME280;57976;48.174;16.370;2023-02-15T00:45:32;100963.80;;;5.01;71.57
70488;BME280;57976;48.174;16.370;2023-02-15T00:47:35;100966.06;;;5.01;71.78
70488;BME280;57976;48.174;16.370;2023-02-15T00:49:38;100966.51;;;5.02;71.92
70488;BME280;57976;48.174;16.370;2023-02-15T00:51:41;100965.02;;;5.01;71.83
70488;BME280;57976;48.174;16.370;2023-02-15T00:53:44;100965.61;;;5.00;71.36
70488;BME280;57976;48.174;16.370;2023-02-15T00:55:47;100961.63;;;4.99;71.62
70488;BME280;57976;48.174;16.370;2023-02-15T00:57:49;100960.26;;;4.99;71.63
70488;BME280;57976;48.174;16.370;2023-02-15T00:59:52;100956.66;;;4.98;71.59
70488;BME280;57976;48.174;16.370;2023-02-15T01:01:55;100954.02;;;5.00;71.39
70488;BME280;57976;48.174;16.370;2023-02-15T01:03:58;100954.88;;;4.98;71.53
70488;BME280;57976;48.174;16.370;2023-02-15T01:06:01;100949.30;;;4.95;71.40
70488;BME280;57976;48.174;16.370;2023-02-15T01:08:05;100950.21;;;4.95;71.67
70488;BME280;57976;48.174;16.370;2023-02-15T01:10:09;100944.98;;;4.92;71.70
70488;BME280;57976;48.174;16.370;2023-02-15T01:12:12;100943.95;;;4.94;71.81
70488;BME280;57976;48.174;16.370;2023-02-15T01:14:15;100939.14;;;4.97;71.75
70488;BME280;57976;48.174;16.370;2023-02-15T01:16:18;100936.70;;;5.03;72.01
70488;BME280;57976;48.174;16.370;2023-02-15T01:18:22;100933.77;;;5.06;71.55
70488;BME280;57976;48.174;16.370;2023-02-15T01:20:27;100933.54;;;5.07;71.36
70488;BME280;57976;48.174;16.370;2023-02-15T01:22:30;100928.77;;;5.07;71.35
70488;BME280;57976;48.174;16.370;2023-02-15T01:24:33;100926.30;;;5.07;71.20
70488;BME280;57976;48.174;16.370;2023-02-15T01:26:37;100925.02;;;5.08;71.29
70488;BME280;57976;48.174;16.370;2023-02-15T01:28:41;100924.00;;;5.05;71.16
70488;BME280;57976;48.174;16.370;2023-02-15T01:30:43;100921.63;;;5.06;71.24
70488;BME280;57976;48.174;16.370;2023-02-15T01:32:46;100922.38;;;5.06;70.93
70488;BME280;57976;48.174;16.370;2023-02-15T01:34:49;100916.42;;;5.05;71.24
70488;BME280;57976;48.174;16.370;2023-02-15T01:36:52;100915.52;;;5.06;71.02
70488;BME280;57976;48.174;16.370;2023-02-15T01:38:55;100915.90;;;5.05;71.27
70488;BME280;57976;48.174;16.370;2023-02-15T01:40:58;100910.44;;;5.05;71.41
70488;BME280;57976;48.174;16.370;2023-02-15T01:43:00;100911.95;;;5.06;71.16
70488;BME280;57976;48.174;16.370;2023-02-15T01:45:04;100910.41;;;5.08;71.26
70488;BME280;57976;48.174;16.370;2023-02-15T01:47:17;100908.93;;;5.07;71.25
70488;BME280;57976;48.174;16.370;2023-02-15T01:49:24;100907.39;;;5.06;71.44
70488;BME280;57976;48.174;16.370;2023-02-15T01:51:30;100910.52;;;5.06;71.09
70488;BME280;57976;48.174;16.370;2023-02-15T01:53:36;100908.14;;;5.05;70.86
70488;BME280;57976;48.174;16.370;2023-02-15T01:55:45;100906.64;;;5.04;70.98
70488;BME280;57976;48.174;16.370;2023-02-15T01:57:51;100910.96;;;5.01;71.03
70488;BME280;57976;48.174;16.370;2023-02-15T01:59:58;100900.21;;;4.95;70.91
70488;BME280;57976;48.174;16.370;2023-02-15T02:02:02;100900.69;;;4.89;71.21
70488;BME280;57976;48.174;16.370;2023-02-15T02:04:12;100899.65;;;4.85;71.38
70488;BME280;57976;48.174;16.370;2023-02-15T02:06:16;100896.95;;;4.79;71.41
70488;BME280;57976;48.174;16.370;2023-02-15T02:08:19;100895.48;;;4.74;71.78
70488;BME280;57976;48.174;16.370;2023-02-15T02:10:24;100894.63;;;4.76;72.11
70488;BME280;57976;48.174;16.370;2023-02-15T02:12:27;100891.89;;;4.79;72.10
70488;BME280;57976;48.174;16.370;2023-02-15T02:14:30;100894.59;;;4.84;72.21
70488;BME280;57976;48.174;16.370;2023-02-15T02:16:42;100891.09;;;4.88;71.83
70488;BME280;57976;48.174;16.370;2023-02-15T02:18:57;100891.19;;;4.87;71.68
70488;BME280;57976;48.174;16.370;2023-02-15T02:23:46;100886.66;;;4.87;71.68
70488;BME280;57976;48.174;16.370;2023-02-15T02:28:57;100879.27;;;4.93;71.72
70488;BME280;57976;48.174;16.370;2023-02-15T02:31:31;100878.02;;;4.99;71.74
70488;BME280;57976;48.174;16.370;2023-02-15T02:33:57;100873.70;;;4.96;71.31
70488;BME280;57976;48.174;16.370;2023-02-15T02:36:11;100871.95;;;4.90;71.46
70488;BME280;57976;48.174;16.370;2023-02-15T02:38:23;100871.45;;;4.85;71.41
70488;BME280;57976;48.174;16.370;2023-02-15T02:40:36;100873.16;;;4.82;71.56
70488;BME280;57976;48.174;16.370;2023-02-15T02:42:43;100871.64;;;4.77;71.48
70488;BME280;57976;48.174;16.370;2023-02-15T02:44:49;100871.52;;;4.76;71.87
70488;BME280;57976;48.174;16.370;2023-02-15T02:46:54;100864.61;;;4.76;71.68
70488;BME280;57976;48.174;16.370;2023-02-15T02:49:01;100865.54;;;4.78;71.90
70488;BME280;57976;48.174;16.370;2023-02-15T02:51:06;100864.55;;;4.82;71.82
70488;BME280;57976;48.174;16.370;2023-02-15T02:53:10;100860.88;;;4.84;71.76
70488;BME280;57976;48.174;16.370;2023-02-15T02:55:17;100860.92;;;4.87;71.71
70488;BME280;57976;48.174;16.370;2023-02-15T02:57:24;100861.03;;;4.90;71.45
70488;BME280;57976;48.174;16.370;2023-02-15T02:59:32;100859.16;;;4.87;71.13
70488;BME280;57976;48.174;16.370;2023-02-15T03:01:39;100856.25;;;4.88;71.52
70488;BME280;57976;48.174;16.370;2023-02-15T03:03:45;100855.64;;;4.89;71.55
70488;BME280;57976;48.174;16.370;2023-02-15T03:05:53;100854.97;;;4.89;71.33
70488;BME280;57976;48.174;16.370;2023-02-15T03:07:57;100854.35;;;4.88;71.27
70488;BME280;57976;48.174;16.370;2023-02-15T03:10:03;100852.46;;;4.85;71.36
70488;BME280;57976;48.174;16.370;2023-02-15T03:12:08;100852.20;;;4.86;71.61
70488;BME280;57976;48.174;16.370;2023-02-15T03:14:13;100850.63;;;4.88;71.52
70488;BME280;57976;48.174;16.370;2023-02-15T03:16:18;100851.82;;;4.91;71.52
70488;BME280;57976;48.174;16.370;2023-02-15T03:18:24;100849.90;;;4.95;71.52
70488;BME280;57976;48.174;16.370;2023-02-15T03:20:30;100848.59;;;4.95;71.61
70488;BME280;57976;48.174;16.370;2023-02-15T03:22:40;100847.65;;;4.94;71.54
70488;BME280;57976;48.174;16.370;2023-02-15T03:24:56;100845.57;;;4.92;71.22
70488;BME280;57976;48.174;16.370;2023-02-15T03:27:00;100846.27;;;4.94;71.57
70488;BME280;57976;48.174;16.370;2023-02-15T03:29:06;100847.38;;;4.97;71.33
70488;BME280;57976;48.174;16.370;2023-02-15T03:31:12;100847.76;;;5.01;71.41
70488;BME280;57976;48.174;16.370;2023-02-15T03:33:17;100849.00;;;5.03;71.15
70488;BME280;57976;48.174;16.370;2023-02-15T03:35:23;100845.73;;;5.02;70.92
70488;BME280;57976;48.174;16.370;2023-02-15T03:37:31;100849.37;;;5.01;71.00
70488;BME280;57976;48.174;16.370;2023-02-15T03:39:37;100845.00;;;5.00;70.98
70488;BME280;57976;48.174;16.370;2023-02-15T03:41:48;100849.14;;;4.97;71.07
70488;BME280;57976;48.174;16.370;2023-02-15T03:43:54;100849.54;;;4.91;71.29
70488;BME280;57976;48.174;16.370;2023-02-15T03:46:05;100852.86;;;4.82;71.13
70488;BME280;57976;48.174;16.370;2023-02-15T03:48:10;100852.06;;;4.75;71.02
70488;BME280;57976;48.174;16.370;2023-02-15T03:50:17;100851.71;;;4.71;71.41
70488;BME280;57976;48.174;16.370;2023-02-15T03:52:22;100853.67;;;4.71;71.63
70488;BME280;57976;48.174;16.370;2023-02-15T03:54:29;100847.10;;;4.69;71.64
70488;BME280;57976;48.174;16.370;2023-02-15T03:56:36;100849.61;;;4.65;71.54
70488;BME280;57976;48.174;16.370;2023-02-15T03:58:39;100850.19;;;4.60;71.77
70488;BME280;57976;48.174;16.370;2023-02-15T04:00:47;100846.24;;;4.59;72.06
70488;BME280;57976;48.174;16.370;2023-02-15T04:03:16;100847.36;;;4.64;72.19
70488;BME280;57976;48.174;16.370;2023-02-15T04:05:22;100846.70;;;4.68;72.21
70488;BME280;57976;48.174;16.370;2023-02-15T04:07:24;100850.10;;;4.69;72.04
70488;BME280;57976;48.174;16.370;2023-02-15T04:09:27;100852.04;;;4.67;71.80
70488;BME280;57976;48.174;16.370;2023-02-15T04:11:30;100851.33;;;4.65;72.02
70488;BME280;57976;48.174;16.370;2023-02-15T04:13:33;100852.48;;;4.64;72.30
70488;BME280;57976;48.174;16.370;2023-02-15T04:15:36;100855.23;;;4.67;72.51
70488;BME280;57976;48.174;16.370;2023-02-15T04:17:39;100852.70;;;4.68;72.17
70488;BME280;57976;48.174;16.370;2023-02-15T04:19:41;100852.82;;;4.71;72.21
70488;BME280;57976;48.174;16.370;2023-02-15T04:21:44;100851.48;;;4.72;72.11
70488;BME280;57976;48.174;16.370;2023-02-15T04:23:47;100854.23;;;4.73;72.34
70488;BME280;57976;48.174;16.370;2023-02-15T04:25:53;100851.10;;;4.72;72.10
70488;BME280;57976;48.174;16.370;2023-02-15T04:27:56;100845.66;;;4.66;72.07
70488;BME280;57976;48.174;16.370;2023-02-15T04:29:59;100850.14;;;4.62;72.29
70488;BME280;57976;48.174;16.370;2023-02-15T04:32:01;100850.39;;;4.64;72.53
70488;BME280;57976;48.174;16.370;2023-02-15T04:34:04;100844.78;;;4.64;72.38
70488;BME280;57976;48.174;16.370;2023-02-15T04:36:07;100841.56;;;4.60;72.25
70488;BME280;57976;48.174;16.370;2023-02-15T04:38:10;100843.61;;;4.61;72.68
70488;BME280;57976;48.174;16.370;2023-02-15T04:40:14;100843.89;;;4.64;72.66
70488;BME280;57976;48.174;16.370;2023-02-15T04:42:24;100843.83;;;4.62;72.77
70488;BME280;57976;48.174;16.370;2023-02-15T04:44:26;100843.69;;;4.66;72.90
70488;BME280;57976;48.174;16.370;2023-02-15T04:46:29;100845.86;;;4.72;72.71
70488;BME280;57976;48.174;16.370;2023-02-15T04:48:32;100846.59;;;4.76;72.65
70488;BME280;57976;48.174;16.370;2023-02-15T04:50:35;100845.79;;;4.78;72.75
70488;BME280;57976;48.174;16.370;2023-02-15T04:52:38;100845.61;;;4.83;72.61
70488;BME280;57976;48.174;16.370;2023-02-15T04:54:40;100847.40;;;4.83;72.40
70488;BME280;57976;48.174;16.370;2023-02-15T04:56:44;100851.35;;;4.84;72.49
70488;BME280;57976;48.174;16.370;2023-02-15T04:58:47;100848.19;;;4.84;72.14
70488;BME280;57976;48.174;16.370;2023-02-15T05:00:50;100848.64;;;4.80;72.38
70488;BME280;57976;48.174;16.370;2023-02-15T05:02:53;100846.61;;;4.81;72.40
70488;BME280;57976;48.174;16.370;2023-02-15T05:04:56;100848.34;;;4.80;72.20
70488;BME280;57976;48.174;16.370;2023-02-15T05:06:59;100852.32;;;4.78;72.23
70488;BME280;57976;48.174;16.370;2023-02-15T05:09:02;100851.19;;;4.79;72.28
70488;BME280;57976;48.174;16.370;2023-02-15T05:11:05;100851.74;;;4.73;72.08
70488;BME280;57976;48.174;16.370;2023-02-15T05:13:07;100851.31;;;4.65;72.07
70488;BME280;57976;48.174;16.370;2023-02-15T05:15:10;100847.39;;;4.60;72.37
70488;BME280;57976;48.174;16.370;2023-02-15T05:17:13;100846.14;;;4.54;72.70
70488;BME280;57976;48.174;16.370;2023-02-15T05:19:19;100848.33;;;4.48;72.65
70488;BME280;57976;48.174;16.370;2023-02-15T05:21:22;100847.65;;;4.43;72.93
70488;BME280;57976;48.174;16.370;2023-02-15T05:23:25;100850.71;;;4.45;73.07
70488;BME280;57976;48.174;16.370;2023-02-15T05:25:28;100851.25;;;4.47;73.33
70488;BME280;57976;48.174;16.370;2023-02-15T05:27:30;100851.92;;;4.45;73.36
70488;BME280;57976;48.174;16.370;2023-02-15T05:29:33;100853.95;;;4.44;73.25
70488;BME280;57976;48.174;16.370;2023-02-15T05:31:36;100853.67;;;4.47;73.10
70488;BME280;57976;48.174;16.370;2023-02-15T05:33:43;100855.40;;;4.48;73.19
70488;BME280;57976;48.174;16.370;2023-02-15T05:35:45;100860.01;;;4.52;73.33
70488;BME280;57976;48.174;16.370;2023-02-15T05:37:48;100860.16;;;4.56;73.10
70488;BME280;57976;48.174;16.370;2023-02-15T05:39:51;100859.82;;;4.58;72.85
70488;BME280;57976;48.174;16.370;2023-02-15T05:41:54;100857.34;;;4.58;72.45
70488;BME280;57976;48.174;16.370;2023-02-15T05:43:57;100858.88;;;4.61;72.59
70488;BME280;57976;48.174;16.370;2023-02-15T05:46:00;100856.98;;;4.65;72.72
70488;BME280;57976;48.174;16.370;2023-02-15T05:48:03;100856.55;;;4.70;72.41
70488;BME280;57976;48.174;16.370;2023-02-15T05:50:08;100860.59;;;4.74;72.27
70488;BME280;57976;48.174;16.370;2023-02-15T05:52:11;100854.38;;;4.75;71.93
70488;BME280;57976;48.174;16.370;2023-02-15T05:54:13;100859.10;;;4.75;72.01
70488;BME280;57976;48.174;16.370;2023-02-15T05:56:16;100858.23;;;4.73;71.64
70488;BME280;57976;48.174;16.370;2023-02-15T05:58:19;100854.36;;;4.73;71.86
70488;BME280;57976;48.174;16.370;2023-02-15T06:00:22;100857.06;;;4.77;72.00
70488;BME280;57976;48.174;16.370;2023-02-15T06:02:25;100858.30;;;4.78;72.05
70488;BME280;57976;48.174;16.370;2023-02-15T06:04:28;100859.13;;;4.77;71.84
70488;BME280;57976;48.174;16.370;2023-02-15T06:06:31;100857.14;;;4.75;71.86
70488;BME280;57976;48.174;16.370;2023-02-15T06:08:35;100859.88;;;4.74;71.78
70488;BME280;57976;48.174;16.370;2023-02-15T06:10:38;100862.64;;;4.75;71.82
70488;BME280;57976;48.174;16.370;2023-02-15T06:12:41;100864.77;;;4.73;71.74
70488;BME280;57976;48.174;16.370;2023-02-15T06:14:44;100867.58;;;4.71;71.86
70488;BME280;57976;48.174;16.370;2023-02-15T06:16:47;100871.00;;;4.65;71.82
70488;BME280;57976;48.174;16.370;2023-02-15T06:18:50;100870.87;;;4.59;71.96
70488;BME280;57976;48.174;16.370;2023-02-15T06:20:55;100867.37;;;4.54;72.09
70488;BME280;57976;48.174;16.370;2023-02-15T06:22:58;100872.23;;;4.53;72.27
70488;BME280;57976;48.174;16.370;2023-02-15T06:25:02;100876.64;;;4.46;72.20
70488;BME280;57976;48.174;16.370;2023-02-15T06:27:05;100878.00;;;4.42;72.36
70488;BME280;57976;48.174;16.370;2023-02-15T06:29:07;100880.75;;;4.39;72.29
70488;BME280;57976;48.174;16.370;2023-02-15T06:31:10;100881.84;;;4.34;72.48
70488;BME280;57976;48.174;16.370;2023-02-15T06:33:13;100882.42;;;4.29;72.74
70488;BME280;57976;48.174;16.370;2023-02-15T06:35:16;100882.38;;;4.21;72.83
70488;BME280;57976;48.174;16.370;2023-02-15T06:37:20;100881.52;;;4.12;73.36
70488;BME280;57976;48.174;16.370;2023-02-15T06:39:23;100877.96;;;4.10;74.00
70488;BME280;57976;48.174;16.370;2023-02-15T06:41:26;100879.77;;;4.16;74.15
70488;BME280;57976;48.174;16.370;2023-02-15T06:43:29;100883.41;;;4.21;74.41
70488;BME280;57976;48.174;16.370;2023-02-15T06:45:32;100881.51;;;4.25;74.38
70488;BME280;57976;48.174;16.370;2023-02-15T06:47:36;100880.05;;;4.30;74.31
70488;BME280;57976;48.174;16.370;2023-02-15T06:49:39;100877.08;;;4.37;73.98
70488;BME280;57976;48.174;16.370;2023-02-15T06:51:41;100876.41;;;4.42;74.25
70488;BME280;57976;48.174;16.370;2023-02-15T06:53:44;100873.64;;;4.46;73.63
70488;BME280;57976;48.174;16.370;2023-02-15T06:55:47;100874.42;;;4.49;73.45
70488;BME280;57976;48.174;16.370;2023-02-15T06:57:50;100869.11;;;4.43;73.49
70488;BME280;57976;48.174;16.370;2023-02-15T06:59:53;100867.45;;;4.36;73.79
70488;BME280;57976;48.174;16.370;2023-02-15T07:01:56;100866.50;;;4.28;74.35
70488;BME280;57976;48.174;16.370;2023-02-15T07:03:59;100869.88;;;4.26;74.56
70488;BME280;57976;48.174;16.370;2023-02-15T07:06:03;100870.58;;;4.28;75.12
70488;BME280;57976;48.174;16.370;2023-02-15T07:08:07;100870.44;;;4.29;74.66
70488;BME280;57976;48.174;16.370;2023-02-15T07:10:10;100867.89;;;4.26;74.58
70488;BME280;57976;48.174;16.370;2023-02-15T07:12:13;100867.88;;;4.26;74.72
70488;BME280;57976;48.174;16.370;2023-02-15T07:14:16;100865.73;;;4.31;75.03
70488;BME280;57976;48.174;16.370;2023-02-15T07:16:19;100865.52;;;4.40;75.17
70488;BME280;57976;48.174;16.370;2023-02-15T07:18:22;100860.70;;;4.49;75.08
70488;BME280;57976;48.174;16.370;2023-02-15T07:20:25;100860.46;;;4.59;74.73
70488;BME280;57976;48.174;16.370;2023-02-15T07:22:27;100855.74;;;4.65;74.50
70488;BME280;57976;48.174;16.370;2023-02-15T07:24:30;100855.45;;;4.73;74.07
70488;BME280;57976;48.174;16.370;2023-02-15T07:26:33;100854.92;;;4.75;73.50
70488;BME280;57976;48.174;16.370;2023-02-15T07:28:36;100857.91;;;4.68;73.72
70488;BME280;57976;48.174;16.370;2023-02-15T07:30:39;100859.89;;;4.72;74.02
70488;BME280;57976;48.174;16.370;2023-02-15T07:32:42;100855.69;;;4.76;74.13
70488;BME280;57976;48.174;16.370;2023-02-15T07:34:45;100854.64;;;4.82;73.87
70488;BME280;57976;48.174;16.370;2023-02-15T07:36:49;100854.50;;;4.86;73.88
70488;BME280;57976;48.174;16.370;2023-02-15T07:38:52;100856.45;;;4.84;74.28
70488;BME280;57976;48.174;16.370;2023-02-15T07:40:59;100861.67;;;4.87;74.12
70488;BME280;57976;48.174;16.370;2023-02-15T07:43:01;100863.20;;;4.91;73.97
70488;BME280;57976;48.174;16.370;2023-02-15T07:45:05;100863.95;;;4.95;73.68
70488;BME280;57976;48.174;16.370;2023-02-15T07:47:08;100861.71;;;5.01;73.43
70488;BME280;57976;48.174;16.370;2023-02-15T07:49:11;100867.17;;;5.07;73.31
70488;BME280;57976;48.174;16.370;2023-02-15T07:51:14;100860.95;;;5.03;72.72
70488;BME280;57976;48.174;16.370;2023-02-15T07:53:17;100861.44;;;4.91;72.40
70488;BME280;57976;48.174;16.370;2023-02-15T07:55:21;100862.15;;;4.74;73.07
70488;BME280;57976;48.174;16.370;2023-02-15T07:57:23;100859.98;;;4.67;73.73
70488;BME280;57976;48.174;16.370;2023-02-15T07:59:26;100859.85;;;4.66;73.91
70488;BME280;57976;48.174;16.370;2023-02-15T08:01:31;100863.13;;;4.67;74.36
70488;BME280;57976;48.174;16.370;2023-02-15T08:03:34;100861.45;;;4.74;74.42
70488;BME280;57976;48.174;16.370;2023-02-15T08:05:37;100862.10;;;4.81;74.21
70488;BME280;57976;48.174;16.370;2023-02-15T08:07:40;100868.13;;;4.85;73.79
70488;BME280;57976;48.174;16.370;2023-02-15T08:09:42;100865.66;;;4.87;73.94
70488;BME280;57976;48.174;16.370;2023-02-15T08:11:47;100864.26;;;4.89;73.80
70488;BME280;57976;48.174;16.370;2023-02-15T08:13:51;100868.69;;;4.97;73.68
70488;BME280;57976;48.174;16.370;2023-02-15T08:15:55;100863.21;;;5.04;73.65
70488;BME280;57976;48.174;16.370;2023-02-15T08:17:58;100869.01;;;5.06;73.01
70488;BME280;57976;48.174;16.370;2023-02-15T08:20:01;100864.80;;;4.91;72.44
70488;BME280;57976;48.174;16.370;2023-02-15T08:22:05;100863.84;;;4.80;73.38
70488;BME280;57976;48.174;16.370;2023-02-15T08:24:09;100864.79;;;4.79;73.87
70488;BME280;57976;48.174;16.370;2023-02-15T08:26:13;100865.69;;;4.85;73.81
70488;BME280;57976;48.174;16.370;2023-02-15T08:28:16;100864.75;;;4.86;73.61
70488;BME280;57976;48.174;16.370;2023-02-15T08:30:19;100866.84;;;4.90;74.05
70488;BME280;57976;48.174;16.370;2023-02-15T08:32:22;100864.58;;;4.98;73.82
70488;BME280;57976;48.174;16.370;2023-02-15T08:34:25;100864.35;;;5.05;73.65
70488;BME280;57976;48.174;16.370;2023-02-15T08:36:29;100862.36;;;5.11;73.59
70488;BME280;57976;48.174;16.370;2023-02-15T08:38:32;100858.58;;;5.15;73.24
70488;BME280;57976;48.174;16.370;2023-02-15T08:40:35;100861.30;;;5.18;73.12
70488;BME280;57976;48.174;16.370;2023-02-15T08:42:38;100860.34;;;5.15;72.62
70488;BME280;57976;48.174;16.370;2023-02-15T08:44:41;100861.70;;;5.09;72.79
70488;BME280;57976;48.174;16.370;2023-02-15T08:46:45;100857.42;;;5.12;72.99
70488;BME280;57976;48.174;16.370;2023-02-15T08:48:48;100857.38;;;5.18;72.72
70488;BME280;57976;48.174;16.370;2023-02-15T08:50:51;100854.14;;;5.23;72.69
70488;BME280;57976;48.174;16.370;2023-02-15T08:52:53;100852.55;;;5.28;72.73
70488;BME280;57976;48.174;16.370;2023-02-15T08:54:56;100850.89;;;5.31;72.45
70488;BME280;57976;48.174;16.370;2023-02-15T08:56:59;100847.91;;;5.39;72.66
70488;BME280;57976;48.174;16.370;2023-02-15T08:59:02;100846.20;;;5.44;72.03
70488;BME280;57976;48.174;16.370;2023-02-15T09:01:13;100847.79;;;5.48;72.08
70488;BME280;57976;48.174;16.370;2023-02-15T09:03:16;100847.39;;;5.53;71.90
70488;BME280;57976;48.174;16.370;2023-02-15T09:05:19;100848.45;;;5.55;71.64
70488;BME280;57976;48.174;16.370;2023-02-15T09:07:22;100850.30;;;5.54;71.56
70488;BME280;57976;48.174;16.370;2023-02-15T09:09:25;100848.49;;;5.53;71.29
70488;BME280;57976;48.174;16.370;2023-02-15T09:11:30;100851.80;;;5.53;71.31
70488;BME280;57976;48.174;16.370;2023-02-15T09:13:37;100850.38;;;5.51;71.47
70488;BME280;57976;48.174;16.370;2023-02-15T09:15:40;100849.90;;;5.56;71.51
70488;BME280;57976;48.174;16.370;2023-02-15T09:17:42;100848.61;;;5.65;71.60
70488;BME280;57976;48.174;16.370;2023-02-15T09:19:45;100847.02;;;5.69;71.04
70488;BME280;57976;48.174;16.370;2023-02-15T09:21:48;100848.84;;;5.67;70.76
70488;BME280;57976;48.174;16.370;2023-02-15T09:23:54;100849.45;;;5.70;70.79
70488;BME280;57976;48.174;16.370;2023-02-15T09:26:02;100848.09;;;5.75;70.68
70488;BME280;57976;48.174;16.370;2023-02-15T09:28:05;100848.45;;;5.81;70.42
70488;BME280;57976;48.174;16.370;2023-02-15T09:30:10;100850.73;;;5.85;70.43
70488;BME280;57976;48.174;16.370;2023-02-15T09:32:15;100846.66;;;5.88;70.13
70488;BME280;57976;48.174;16.370;2023-02-15T09:34:19;100846.66;;;5.88;69.78
70488;BME280;57976;48.174;16.370;2023-02-15T09:36:24;100846.27;;;5.88;69.73
70488;BME280;57976;48.174;16.370;2023-02-15T09:38:27;100843.27;;;5.78;68.90
70488;BME280;57976;48.174;16.370;2023-02-15T09:40:39;100838.05;;;5.73;69.68
70488;BME280;57976;48.174;16.370;2023-02-15T09:45:33;100842.46;;;5.77;69.73
70488;BME280;57976;48.174;16.370;2023-02-15T09:47:53;100837.29;;;5.74;69.41
70488;BME280;57976;48.174;16.370;2023-02-15T09:50:05;100839.86;;;5.60;69.58
70488;BME280;57976;48.174;16.370;2023-02-15T09:52:36;100840.61;;;5.56;70.03
70488;BME280;57976;48.174;16.370;2023-02-15T09:54:53;100839.90;;;5.46;69.90
70488;BME280;57976;48.174;16.370;2023-02-15T09:57:07;100839.77;;;5.51;70.60
70488;BME280;57976;48.174;16.370;2023-02-15T09:59:19;100834.85;;;5.60;70.61
70488;BME280;57976;48.174;16.370;2023-02-15T10:01:32;100830.84;;;5.67;70.44
70488;BME280;57976;48.174;16.370;2023-02-15T10:03:48;100828.13;;;5.72;70.08
70488;BME280;57976;48.174;16.370;2023-02-15T10:06:08;100825.08;;;5.72;69.85
70488;BME280;57976;48.174;16.370;2023-02-15T10:10:47;100826.70;;;5.86;69.82
70488;BME280;57976;48.174;16.370;2023-02-15T10:13:02;100826.16;;;5.84;68.61
70488;BME280;57976;48.174;16.370;2023-02-15T10:15:38;100828.20;;;5.67;68.39
70488;BME280;57976;48.174;16.370;2023-02-15T10:18:01;100827.11;;;5.61;69.58
70488;BME280;57976;48.174;16.370;2023-02-15T10:20:15;100826.25;;;5.57;69.15
70488;BME280;57976;48.174;16.370;2023-02-15T10:22:27;100826.33;;;5.60;69.65
70488;BME280;57976;48.174;16.370;2023-02-15T10:24:49;100825.10;;;5.66;69.92
70488;BME280;57976;48.174;16.370;2023-02-15T10:26:59;100824.02;;;5.70;70.01
70488;BME280;57976;48.174;16.370;2023-02-15T10:29:09;100822.05;;;5.81;70.01
70488;BME280;57976;48.174;16.370;2023-02-15T10:31:19;100818.41;;;5.92;69.74
70488;BME280;57976;48.174;16.370;2023-02-15T10:33:38;100818.77;;;6.02;69.37
70488;BME280;57976;48.174;16.370;2023-02-15T10:35:50;100817.34;;;6.08;68.77
70488;BME280;57976;48.174;16.370;2023-02-15T10:38:06;100815.59;;;6.08;68.58
70488;BME280;57976;48.174;16.370;2023-02-15T10:40:17;100814.23;;;6.13;68.59
70488;BME280;57976;48.174;16.370;2023-02-15T10:42:33;100810.40;;;6.15;68.17
70488;BME280;57976;48.174;16.370;2023-02-15T10:44:54;100808.91;;;6.10;68.17
70488;BME280;57976;48.174;16.370;2023-02-15T10:49:50;100804.60;;;6.04;69.02
70488;BME280;57976;48.174;16.370;2023-02-15T10:52:08;100804.63;;;6.14;69.16
70488;BME280;57976;48.174;16.370;2023-02-15T10:54:22;100800.36;;;6.22;68.89
70488;BME280;57976;48.174;16.370;2023-02-15T10:56:36;100794.35;;;6.32;68.18
70488;BME280;57976;48.174;16.370;2023-02-15T10:58:52;100792.49;;;6.27;68.10
70488;BME280;57976;48.174;16.370;2023-02-15T11:01:04;100786.44;;;6.30;68.53
70488;BME280;57976;48.174;16.370;2023-02-15T11:03:22;100781.44;;;6.38;68.40
70488;BME280;57976;48.174;16.370;2023-02-15T11:05:38;100777.58;;;6.42;68.19
70488;BME280;57976;48.174;16.370;2023-02-15T11:07:46;100775.01;;;6.50;67.99
70488;BME280;57976;48.174;16.370;2023-02-15T11:09:51;100775.87;;;6.53;67.78